createdAt,value
2023-04-16T00:01:20.628Z,97242.00
2023-04-16T00:03:49.071Z,97235.00
2023-04-16T00:06:17.344Z,97243.00
2023-04-16T00:08:46.847Z,97252.00
2023-04-16T00:11:15.109Z,97238.00
2023-04-16T00:13:43.348Z,97244.00
2023-04-16T00:16:11.526Z,97249.00
2023-04-16T00:18:40.014Z,97249.00
2023-04-16T00:21:08.993Z,97238.00
2023-04-16T00:23:37.873Z,97243.00
2023-04-16T00:26:07.443Z,97246.00
2023-04-16T00:28:35.725Z,97235.00
2023-04-16T00:31:04.142Z,97240.00
2023-04-16T00:33:32.352Z,97243.00
2023-04-16T00:36:00.640Z,97243.00
2023-04-16T00:38:32.416Z,97244.00
2023-04-16T00:41:00.925Z,97248.00
2023-04-16T00:43:31.696Z,97242.00
2023-04-16T00:46:00.623Z,97241.00
2023-04-16T00:48:30.601Z,97240.00
2023-04-16T00:51:01.034Z,97258.00
2023-04-16T00:53:30.065Z,97241.00
2023-04-16T00:55:58.803Z,97245.00
2023-04-16T00:58:27.538Z,97238.00
2023-04-16T01:00:57.435Z,97248.00
2023-04-16T01:03:35.663Z,97237.00
2023-04-16T01:06:04.595Z,97242.00
2023-04-16T01:08:32.812Z,97242.00
2023-04-16T01:11:01.015Z,97241.00
2023-04-16T01:13:29.340Z,97255.00
2023-04-16T01:16:00.481Z,97249.00
2023-04-16T01:18:28.907Z,97239.00
2023-04-16T01:20:58.448Z,97256.00
2023-04-16T01:23:26.700Z,97261.00
2023-04-16T01:25:55.010Z,97253.00
2023-04-16T01:28:23.751Z,97254.00
2023-04-16T01:30:52.019Z,97259.00
2023-04-16T01:33:28.756Z,97245.00
2023-04-16T01:35:58.442Z,97244.00
2023-04-16T01:38:26.609Z,97259.00
2023-04-16T01:40:59.366Z,97270.00
2023-04-16T01:43:27.635Z,97247.00
2023-04-16T01:46:13.682Z,97238.00
2023-04-16T01:48:42.824Z,97245.00
2023-04-16T01:51:12.401Z,97244.00
2023-04-16T01:53:40.774Z,97259.00
2023-04-16T01:56:09.073Z,97246.00
2023-04-16T01:58:37.305Z,97243.00
2023-04-16T02:01:06.007Z,97260.00
2023-04-16T02:03:34.935Z,97249.00
2023-04-16T02:06:05.240Z,97262.00
2023-04-16T02:08:34.922Z,97259.00
2023-04-16T02:11:03.171Z,97244.00
2023-04-16T02:13:31.489Z,97252.00
2023-04-16T02:15:59.700Z,97253.00
2023-04-16T02:18:42.299Z,97247.00
2023-04-16T02:21:11.222Z,97258.00
2023-04-16T02:23:41.720Z,97244.00
2023-04-16T02:26:10.335Z,97246.00
2023-04-16T02:28:39.287Z,97248.00
2023-04-16T02:31:08.979Z,97248.00
2023-04-16T02:33:42.664Z,97248.00
2023-04-16T02:36:12.828Z,97257.00
2023-04-16T02:38:42.624Z,97263.00
2023-04-16T02:41:10.905Z,97261.00
2023-04-16T02:43:39.407Z,97265.00
2023-04-16T02:46:07.792Z,97272.00
2023-04-16T02:48:36.333Z,97259.00
2023-04-16T02:51:04.595Z,97269.00
2023-04-16T02:53:32.789Z,97275.00
2023-04-16T02:56:02.553Z,97253.00
2023-04-16T02:58:30.755Z,97257.00
2023-04-16T03:00:59.231Z,97268.00
2023-04-16T03:03:27.542Z,97265.00
2023-04-16T03:05:55.883Z,97278.00
2023-04-16T03:08:24.122Z,97261.00
2023-04-16T03:10:52.267Z,97249.00
2023-04-16T03:13:21.772Z,97265.00
2023-04-16T03:15:50.731Z,97274.00
2023-04-16T03:18:19.029Z,97260.00
2023-04-16T03:20:47.221Z,97261.00
2023-04-16T03:23:15.539Z,97265.00
2023-04-16T03:25:46.688Z,97265.00
2023-04-16T03:28:15.660Z,97272.00
2023-04-16T03:30:51.428Z,97278.00
2023-04-16T03:33:19.648Z,97279.00
2023-04-16T03:35:48.024Z,97279.00
2023-04-16T03:38:16.298Z,97288.00
2023-04-16T03:40:44.484Z,97283.00
2023-04-16T03:43:12.696Z,97291.00
2023-04-16T03:45:46.724Z,97288.00
2023-04-16T03:48:15.817Z,97287.00
2023-04-16T03:50:48.459Z,97288.00
2023-04-16T03:53:18.542Z,97285.00
2023-04-16T03:55:52.291Z,97285.00
2023-04-16T03:58:21.970Z,97283.00
2023-04-16T04:00:54.156Z,97279.00
2023-04-16T04:03:22.559Z,97301.00
2023-04-16T04:05:51.656Z,97283.00
2023-04-16T04:08:26.275Z,97294.00
2023-04-16T04:10:54.431Z,97289.00
2023-04-16T04:13:24.454Z,97293.00
2023-04-16T04:15:54.956Z,97299.00
2023-04-16T04:18:24.499Z,97303.00
2023-04-16T04:20:53.191Z,97309.00
2023-04-16T04:23:25.302Z,97313.00
2023-04-16T04:25:53.463Z,97323.00
2023-04-16T04:28:22.029Z,97321.00
2023-04-16T04:30:50.278Z,97317.00
2023-04-16T04:33:21.174Z,97312.00
2023-04-16T04:35:49.584Z,97324.00
2023-04-16T04:38:20.079Z,97313.00
2023-04-16T04:40:49.318Z,97307.00
2023-04-16T04:43:19.518Z,97315.00
2023-04-16T04:45:49.075Z,97321.00
2023-04-16T04:48:18.075Z,97322.00
2023-04-16T04:50:48.456Z,97321.00
2023-04-16T04:53:16.686Z,97319.00
2023-04-16T04:55:44.814Z,97327.00
2023-04-16T04:58:12.987Z,97328.00
2023-04-16T05:00:43.882Z,97335.00
2023-04-16T05:03:13.495Z,97328.00
2023-04-16T05:05:42.367Z,97320.00
2023-04-16T05:08:11.853Z,97336.00
2023-04-16T05:10:40.086Z,97343.00
2023-04-16T05:13:08.278Z,97340.00
2023-04-16T05:15:36.499Z,97337.00
2023-04-16T05:18:04.844Z,97344.00
2023-04-16T05:20:33.171Z,97341.00
2023-04-16T05:23:01.327Z,97351.00
2023-04-16T05:25:30.972Z,97349.00
2023-04-16T05:27:59.185Z,97357.00
2023-04-16T05:30:27.460Z,97356.00
2023-04-16T05:32:55.646Z,97354.00
2023-04-16T05:35:23.874Z,97358.00
2023-04-16T05:37:52.164Z,97356.00
2023-04-16T05:40:20.415Z,97364.00
2023-04-16T05:42:50.166Z,97363.00
2023-04-16T05:45:18.376Z,97366.00
2023-04-16T05:47:46.586Z,97365.00
2023-04-16T05:50:14.840Z,97374.00
2023-04-16T05:52:42.993Z,97372.00
2023-04-16T05:55:11.634Z,97385.00
2023-04-16T05:57:39.836Z,97377.00
2023-04-16T06:00:10.836Z,97369.00
2023-04-16T06:02:42.382Z,97385.00
2023-04-16T06:05:10.934Z,97379.00
2023-04-16T06:07:39.151Z,97377.00
2023-04-16T06:10:08.648Z,97388.00
2023-04-16T06:12:36.800Z,97379.00
2023-04-16T06:15:06.342Z,97391.00
2023-04-16T06:17:35.959Z,97402.00
2023-04-16T06:20:04.867Z,97402.00
2023-04-16T06:22:33.038Z,97407.00
2023-04-16T06:25:01.414Z,97400.00
2023-04-16T06:27:29.587Z,97395.00
2023-04-16T06:29:58.862Z,97401.00
2023-04-16T06:32:27.298Z,97397.00
2023-04-16T06:34:58.662Z,97405.00
2023-04-16T06:37:26.905Z,97399.00
2023-04-16T06:39:55.088Z,97410.00
2023-04-16T06:42:23.363Z,97423.00
2023-04-16T06:44:51.580Z,97409.00
2023-04-16T06:47:19.828Z,97416.00
2023-04-16T06:49:48.098Z,97414.00
2023-04-16T06:52:17.874Z,97414.00
2023-04-16T06:54:46.081Z,97414.00
2023-04-16T06:57:14.242Z,97423.00
2023-04-16T06:59:42.716Z,97414.00
2023-04-16T07:02:12.026Z,97416.00
2023-04-16T07:04:40.322Z,97429.00
2023-04-16T07:07:09.898Z,97424.00
2023-04-16T07:09:39.421Z,97419.00
2023-04-16T07:12:08.430Z,97433.00
2023-04-16T07:14:36.762Z,97428.00
2023-04-16T07:17:04.920Z,97424.00
2023-04-16T07:19:33.760Z,97430.00
2023-04-16T07:22:02.210Z,97436.00
2023-04-16T07:24:30.516Z,97432.00
2023-04-16T07:27:00.029Z,97436.00
2023-04-16T07:29:28.329Z,97428.00
2023-04-16T07:31:56.704Z,97434.00
2023-04-16T07:34:24.922Z,97451.00
2023-04-16T07:36:53.074Z,97444.00
2023-04-16T07:39:21.239Z,97440.00
2023-04-16T07:41:51.795Z,97450.00
2023-04-16T07:44:21.540Z,97443.00
2023-04-16T07:46:49.762Z,97452.00
2023-04-16T07:49:18.007Z,97456.00
2023-04-16T07:51:46.417Z,97450.00
2023-04-16T07:54:14.599Z,97452.00
2023-04-16T07:56:42.800Z,97442.00
2023-04-16T07:59:22.061Z,97442.00
2023-04-16T08:01:54.863Z,97439.00
2023-04-16T08:04:25.043Z,97449.00
2023-04-16T08:06:54.427Z,97460.00
2023-04-16T08:09:28.426Z,97455.00
2023-04-16T08:11:56.714Z,97450.00
2023-04-16T08:14:24.873Z,97475.00
2023-04-16T08:16:57.252Z,97463.00
2023-04-16T08:19:25.612Z,97472.00
2023-04-16T08:21:53.830Z,97482.00
2023-04-16T08:24:21.986Z,97468.00
2023-04-16T08:26:50.211Z,97478.00
2023-04-16T08:29:19.181Z,97480.00
2023-04-16T08:31:47.531Z,97476.00
2023-04-16T08:34:17.137Z,97475.00
2023-04-16T08:36:46.057Z,97485.00
2023-04-16T08:39:14.274Z,97482.00
2023-04-16T08:41:45.393Z,97483.00
2023-04-16T08:44:22.409Z,97481.00
2023-04-16T08:46:54.772Z,97489.00
2023-04-16T08:49:26.645Z,97485.00
2023-04-16T08:51:56.879Z,97492.00
2023-04-16T08:54:43.011Z,97499.00
2023-04-16T08:57:15.849Z,97492.00
2023-04-16T08:59:48.230Z,97501.00
2023-04-16T09:02:16.947Z,97497.00
2023-04-16T09:04:49.423Z,97513.00
2023-04-16T09:07:20.685Z,97512.00
2023-04-16T09:09:52.014Z,97526.00
2023-04-16T09:12:24.579Z,97515.00
2023-04-16T09:14:57.508Z,97517.00
2023-04-16T09:17:25.729Z,97527.00
2023-04-16T09:19:55.558Z,97531.00
2023-04-16T09:22:23.793Z,97533.00
2023-04-16T09:24:52.055Z,97533.00
2023-04-16T09:27:20.944Z,97534.00
2023-04-16T09:29:49.094Z,97535.00
2023-04-16T09:32:17.431Z,97536.00
2023-04-16T09:35:02.404Z,97542.00
2023-04-16T09:37:32.316Z,97531.00
2023-04-16T09:40:02.635Z,97531.00
2023-04-16T09:42:33.268Z,97532.00
2023-04-16T09:45:04.155Z,97533.00
2023-04-16T09:47:42.707Z,97534.00
2023-04-16T09:50:18.891Z,97528.00
2023-04-16T09:52:51.518Z,97541.00
2023-04-16T09:55:27.959Z,97537.00
2023-04-16T09:58:01.157Z,97551.00
2023-04-16T10:00:31.789Z,97543.00
2023-04-16T10:03:07.476Z,97551.00
2023-04-16T10:05:37.697Z,97544.00
2023-04-16T10:08:14.016Z,97549.00
2023-04-16T10:10:42.596Z,97560.00
2023-04-16T10:13:12.629Z,97555.00
2023-04-16T10:15:42.179Z,97557.00
2023-04-16T10:18:11.210Z,97561.00
2023-04-16T10:20:41.342Z,97576.00
2023-04-16T10:23:09.612Z,97575.00
2023-04-16T10:25:39.705Z,97575.00
2023-04-16T10:28:11.119Z,97566.00
2023-04-16T10:30:42.262Z,97577.00
2023-04-16T10:33:11.519Z,97576.00
2023-04-16T10:35:42.251Z,97574.00
2023-04-16T10:38:24.965Z,97572.00
2023-04-16T10:41:04.919Z,97566.00
2023-04-16T10:43:39.586Z,97565.00
2023-04-16T10:46:20.954Z,97564.00
2023-04-16T10:48:51.346Z,97579.00
2023-04-16T10:51:30.103Z,97568.00
2023-04-16T10:54:03.486Z,97576.00
2023-04-16T10:56:35.964Z,97591.00
2023-04-16T10:59:07.515Z,97581.00
2023-04-16T11:01:39.045Z,97594.00
2023-04-16T11:04:36.233Z,97581.00
2023-04-16T11:07:13.953Z,97583.00
2023-04-16T11:10:00.369Z,97599.00
2023-04-16T11:12:37.229Z,97587.00
2023-04-16T11:15:08.149Z,97588.00
2023-04-16T11:17:40.294Z,97595.00
2023-04-16T11:20:19.210Z,97600.00
2023-04-16T11:22:50.822Z,97595.00
2023-04-16T11:25:22.838Z,97600.00
2023-04-16T11:27:52.322Z,97594.00
2023-04-16T11:30:30.321Z,97596.00
2023-04-16T11:32:58.780Z,97598.00
2023-04-16T11:35:27.228Z,97608.00
2023-04-16T11:37:59.475Z,97604.00
2023-04-16T11:40:31.719Z,97608.00
2023-04-16T11:43:04.190Z,97602.00
2023-04-16T11:45:35.143Z,97609.00
2023-04-16T11:48:03.469Z,97609.00
2023-04-16T11:50:31.755Z,97612.00
2023-04-16T11:53:06.994Z,97620.00
2023-04-16T11:55:45.863Z,97614.00
2023-04-16T11:58:16.324Z,97605.00
2023-04-16T12:00:45.345Z,97618.00
2023-04-16T12:03:13.748Z,97616.00
2023-04-16T12:05:42.591Z,97613.00
2023-04-16T12:08:13.442Z,97612.00
2023-04-16T12:10:56.512Z,97613.00
2023-04-16T12:13:24.826Z,97613.00
2023-04-16T12:15:55.254Z,97605.00
2023-04-16T12:18:26.708Z,97608.00
2023-04-16T12:20:55.020Z,97601.00
2023-04-16T12:23:30.747Z,97604.00
2023-04-16T12:26:02.196Z,97620.00
2023-04-16T12:28:33.508Z,97610.00
2023-04-16T12:31:02.908Z,97625.00
2023-04-16T12:33:31.434Z,97613.00
2023-04-16T12:35:59.921Z,97626.00
2023-04-16T12:38:30.283Z,97626.00
2023-04-16T12:40:58.579Z,97617.00
2023-04-16T12:43:26.908Z,97620.00
2023-04-16T12:45:55.267Z,97625.00
2023-04-16T12:48:23.484Z,97635.00
2023-04-16T12:50:54.614Z,97626.00
2023-04-16T12:53:22.957Z,97633.00
2023-04-16T12:55:52.590Z,97627.00
2023-04-16T12:58:21.000Z,97630.00
2023-04-16T13:00:49.422Z,97631.00
2023-04-16T13:03:17.890Z,97632.00
2023-04-16T13:05:46.499Z,97629.00
2023-04-16T13:08:14.872Z,97640.00
2023-04-16T13:10:43.646Z,97637.00
2023-04-16T13:13:13.324Z,97628.00
2023-04-16T13:15:41.705Z,97630.00
2023-04-16T13:18:10.001Z,97626.00
2023-04-16T13:20:38.472Z,97621.00
2023-04-16T13:23:06.844Z,97624.00
2023-04-16T13:25:35.404Z,97621.00
2023-04-16T13:28:03.734Z,97628.00
2023-04-16T13:30:34.054Z,97631.00
2023-04-16T13:33:02.582Z,97626.00
2023-04-16T13:35:31.795Z,97622.00
2023-04-16T13:38:00.132Z,97632.00
2023-04-16T13:40:28.461Z,97623.00
2023-04-16T13:42:56.774Z,97622.00
2023-04-16T13:45:25.004Z,97625.00
2023-04-16T13:47:55.911Z,97639.00
2023-04-16T13:50:24.728Z,97629.00
2023-04-16T13:52:52.997Z,97630.00
2023-04-16T13:55:21.195Z,97644.00
2023-04-16T13:57:50.150Z,97639.00
2023-04-16T14:00:19.564Z,97622.00
2023-04-16T14:02:48.818Z,97638.00
2023-04-16T14:05:19.383Z,97624.00
2023-04-16T14:07:47.740Z,97618.00
2023-04-16T14:10:15.990Z,97624.00
2023-04-16T14:12:45.095Z,97627.00
2023-04-16T14:15:14.782Z,97630.00
2023-04-16T14:17:44.314Z,97629.00
2023-04-16T14:20:14.451Z,97627.00
2023-04-16T14:22:44.895Z,97615.00
2023-04-16T14:25:13.145Z,97627.00
2023-04-16T14:27:42.159Z,97621.00
2023-04-16T14:30:11.247Z,97624.00
2023-04-16T14:32:39.473Z,97617.00
2023-04-16T14:35:08.899Z,97609.00
2023-04-16T14:37:38.397Z,97611.00
2023-04-16T14:40:10.938Z,97616.00
2023-04-16T14:42:40.500Z,97601.00
2023-04-16T14:45:10.341Z,97620.00
2023-04-16T14:47:45.553Z,97610.00
2023-04-16T14:50:14.855Z,97616.00
2023-04-16T14:52:43.152Z,97609.00
2023-04-16T14:55:12.807Z,97611.00
2023-04-16T14:57:41.601Z,97617.00
2023-04-16T15:00:11.942Z,97613.00
2023-04-16T15:02:40.473Z,97609.00
2023-04-16T15:05:10.474Z,97622.00
2023-04-16T15:07:38.807Z,97634.00
2023-04-16T15:10:09.373Z,97625.00
2023-04-16T15:12:39.085Z,97629.00
2023-04-16T15:15:10.533Z,97630.00
2023-04-16T15:17:38.819Z,97625.00
2023-04-16T15:20:10.414Z,97644.00
2023-04-16T15:22:39.216Z,97626.00
2023-04-16T15:25:08.769Z,97629.00
2023-04-16T15:27:38.361Z,97633.00
2023-04-16T15:30:08.292Z,97635.00
2023-04-16T15:32:36.566Z,97640.00
2023-04-16T15:35:06.161Z,97646.00
2023-04-16T15:37:34.356Z,97646.00
2023-04-16T15:40:02.593Z,97647.00
2023-04-16T15:42:32.232Z,97648.00
2023-04-16T15:45:02.166Z,97647.00
2023-04-16T15:47:30.699Z,97647.00
2023-04-16T15:49:58.993Z,97654.00
2023-04-16T15:52:27.229Z,97654.00
2023-04-16T15:54:56.331Z,97654.00
2023-04-16T15:57:24.575Z,97656.00
2023-04-16T16:00:06.024Z,97656.00
2023-04-16T16:02:38.258Z,97662.00
2023-04-16T16:05:09.271Z,97657.00
2023-04-16T16:07:37.735Z,97654.00
2023-04-16T16:10:07.007Z,97665.00
2023-04-16T16:12:35.295Z,97655.00
2023-04-16T16:15:04.618Z,97653.00
2023-04-16T16:17:33.101Z,97657.00
2023-04-16T16:20:03.962Z,97640.00
2023-04-16T16:22:35.133Z,97656.00
2023-04-16T16:25:03.343Z,97655.00
2023-04-16T16:27:31.632Z,97657.00
2023-04-16T16:30:00.879Z,97656.00
2023-04-16T16:32:29.235Z,97654.00
2023-04-16T16:34:57.537Z,97660.00
2023-04-16T16:37:27.429Z,97652.00
2023-04-16T16:39:58.800Z,97667.00
2023-04-16T16:42:27.253Z,97675.00
2023-04-16T16:44:56.750Z,97667.00
2023-04-16T16:47:26.087Z,97670.00
2023-04-16T16:49:54.690Z,97677.00
2023-04-16T16:52:26.005Z,97676.00
2023-04-16T16:54:56.645Z,97679.00
2023-04-16T16:57:25.592Z,97682.00
2023-04-16T16:59:54.450Z,97678.00
2023-04-16T17:02:22.872Z,97673.00
2023-04-16T17:04:51.848Z,97686.00
2023-04-16T17:07:20.869Z,97682.00
2023-04-16T17:09:50.425Z,97697.00
2023-04-16T17:12:18.662Z,97693.00
2023-04-16T17:14:51.454Z,97703.00
2023-04-16T17:17:19.933Z,97702.00
2023-04-16T17:19:48.274Z,97701.00
2023-04-16T17:22:16.728Z,97708.00
2023-04-16T17:24:44.969Z,97706.00
2023-04-16T17:27:14.871Z,97727.00
2023-04-16T17:29:43.049Z,97712.00
2023-04-16T17:32:11.365Z,97709.00
2023-04-16T17:34:39.612Z,97713.00
2023-04-16T17:37:07.879Z,97715.00
2023-04-16T17:39:36.068Z,97709.00
2023-04-16T17:42:04.488Z,97709.00
2023-04-16T17:44:34.072Z,97728.00
2023-04-16T17:47:02.237Z,97711.00
2023-04-16T17:49:30.461Z,97729.00
2023-04-16T17:51:58.678Z,97725.00
2023-04-16T17:54:27.193Z,97725.00
2023-04-16T17:56:55.458Z,97719.00
2023-04-16T17:59:23.892Z,97735.00
2023-04-16T18:01:53.588Z,97734.00
2023-04-16T18:04:22.089Z,97732.00
2023-04-16T18:06:50.371Z,97733.00
2023-04-16T18:09:19.480Z,97746.00
2023-04-16T18:11:48.071Z,97748.00
2023-04-16T18:14:19.796Z,97752.00
2023-04-16T18:16:48.935Z,97757.00
2023-04-16T18:19:18.531Z,97758.00
2023-04-16T18:21:46.746Z,97753.00
2023-04-16T18:24:15.824Z,97758.00
2023-04-16T18:26:46.639Z,97762.00
2023-04-16T18:29:16.266Z,97766.00
2023-04-16T18:31:45.952Z,97758.00
2023-04-16T18:34:14.217Z,97773.00
2023-04-16T18:36:43.768Z,97761.00
2023-04-16T18:39:12.056Z,97769.00
2023-04-16T18:41:40.724Z,97768.00
2023-04-16T18:44:10.725Z,97775.00
2023-04-16T18:46:38.969Z,97768.00
2023-04-16T18:49:07.280Z,97774.00
2023-04-16T18:51:35.515Z,97788.00
2023-04-16T18:54:05.397Z,97783.00
2023-04-16T18:56:33.684Z,97783.00
2023-04-16T18:59:02.096Z,97786.00
2023-04-16T19:01:30.452Z,97790.00
2023-04-16T19:03:58.812Z,97793.00
2023-04-16T19:06:27.609Z,97811.00
2023-04-16T19:08:55.850Z,97802.00
2023-04-16T19:11:25.565Z,97803.00
2023-04-16T19:13:53.798Z,97808.00
2023-04-16T19:16:22.269Z,97820.00
2023-04-16T19:18:50.837Z,97802.00
2023-04-16T19:21:19.060Z,97827.00
2023-04-16T19:23:48.104Z,97810.00
2023-04-16T19:26:16.475Z,97807.00
2023-04-16T19:28:46.170Z,97814.00
2023-04-16T19:31:14.386Z,97803.00
2023-04-16T19:33:42.733Z,97810.00
2023-04-16T19:36:11.067Z,97815.00
2023-04-16T19:38:39.728Z,97828.00
2023-04-16T19:41:08.029Z,97821.00
2023-04-16T19:43:37.003Z,97823.00
2023-04-16T19:46:06.653Z,97827.00
2023-04-16T19:48:34.977Z,97832.00
2023-04-16T19:51:04.202Z,97829.00
2023-04-16T19:53:32.477Z,97820.00
2023-04-16T19:56:01.104Z,97830.00
2023-04-16T19:58:29.355Z,97828.00
2023-04-16T20:00:57.696Z,97831.00
2023-04-16T20:03:27.422Z,97827.00
2023-04-16T20:05:55.766Z,97837.00
2023-04-16T20:08:23.964Z,97833.00
2023-04-16T20:10:54.939Z,97834.00
2023-04-16T20:13:23.147Z,97843.00
2023-04-16T20:15:53.902Z,97834.00
2023-04-16T20:18:22.268Z,97843.00
2023-04-16T20:20:51.867Z,97841.00
2023-04-16T20:23:20.082Z,97836.00
2023-04-16T20:25:48.648Z,97822.00
2023-04-16T20:28:21.051Z,97842.00
2023-04-16T20:30:50.720Z,97841.00
2023-04-16T20:33:19.057Z,97839.00
2023-04-16T20:35:47.999Z,97832.00
2023-04-16T20:38:18.245Z,97842.00
2023-04-16T20:40:47.120Z,97836.00
2023-04-16T20:43:18.693Z,97837.00
2023-04-16T20:45:46.972Z,97829.00
2023-04-16T20:48:15.435Z,97828.00
2023-04-16T20:50:43.793Z,97828.00
2023-04-16T20:53:13.029Z,97836.00
2023-04-16T20:55:44.483Z,97836.00
2023-04-16T20:58:12.751Z,97817.00
2023-04-16T21:00:41.019Z,97831.00
2023-04-16T21:03:09.299Z,97820.00
2023-04-16T21:05:37.674Z,97829.00
2023-04-16T21:08:06.721Z,97837.00
2023-04-16T21:10:35.045Z,97827.00
2023-04-16T21:13:04.688Z,97830.00
2023-04-16T21:15:34.617Z,97840.00
2023-04-16T21:18:02.843Z,97832.00
2023-04-16T21:20:31.119Z,97834.00
2023-04-16T21:22:59.465Z,97841.00
2023-04-16T21:25:27.769Z,97838.00
2023-04-16T21:27:56.161Z,97839.00
2023-04-16T21:30:25.711Z,97844.00
2023-04-16T21:32:53.968Z,97833.00
2023-04-16T21:35:22.208Z,97844.00
2023-04-16T21:37:50.383Z,97835.00
2023-04-16T21:40:18.873Z,97841.00
2023-04-16T21:42:47.093Z,97840.00
2023-04-16T21:45:15.565Z,97835.00
2023-04-16T21:47:45.137Z,97833.00
2023-04-16T21:50:14.292Z,97825.00
2023-04-16T21:52:46.063Z,97838.00
2023-04-16T21:55:14.692Z,97826.00
2023-04-16T21:57:42.885Z,97840.00
2023-04-16T22:00:13.876Z,97838.00
2023-04-16T22:02:44.100Z,97826.00
2023-04-16T22:05:13.051Z,97831.00
2023-04-16T22:07:41.389Z,97830.00
2023-04-16T22:10:11.067Z,97838.00
2023-04-16T22:12:40.610Z,97835.00
2023-04-16T22:15:10.410Z,97827.00
2023-04-16T22:17:38.847Z,97832.00
2023-04-16T22:20:12.221Z,97827.00
2023-04-16T22:22:40.546Z,97823.00
2023-04-16T22:25:09.820Z,97824.00
2023-04-16T22:27:38.328Z,97829.00
2023-04-16T22:30:08.352Z,97825.00
2023-04-16T22:32:36.778Z,97839.00
2023-04-16T22:35:05.678Z,97824.00
2023-04-16T22:37:35.295Z,97834.00
2023-04-16T22:40:06.995Z,97826.00
2023-04-16T22:42:35.483Z,97834.00
2023-04-16T22:45:04.496Z,97844.00
2023-04-16T22:47:32.745Z,97827.00
2023-04-16T22:50:00.947Z,97836.00
2023-04-16T22:52:29.107Z,97835.00
2023-04-16T22:54:58.666Z,97823.00
2023-04-16T22:57:26.862Z,97830.00
2023-04-16T22:59:56.230Z,97835.00
2023-04-16T23:02:24.563Z,97837.00
2023-04-16T23:04:52.853Z,97843.00
2023-04-16T23:07:21.011Z,97826.00
2023-04-16T23:09:49.216Z,97833.00
2023-04-16T23:12:18.852Z,97835.00
2023-04-16T23:14:47.983Z,97839.00
2023-04-16T23:17:16.200Z,97842.00
2023-04-16T23:19:44.385Z,97844.00
2023-04-16T23:22:13.153Z,97836.00
2023-04-16T23:24:41.288Z,97836.00
2023-04-16T23:27:09.449Z,97831.00
2023-04-16T23:29:39.010Z,97850.00
2023-04-16T23:32:07.254Z,97835.00
2023-04-16T23:34:35.431Z,97831.00
2023-04-16T23:37:03.602Z,97837.00
2023-04-16T23:39:31.765Z,97844.00
2023-04-16T23:42:00.710Z,97827.00
2023-04-16T23:44:28.896Z,97825.00
2023-04-16T23:46:58.485Z,97819.00
2023-04-16T23:49:26.689Z,97823.00
2023-04-16T23:51:54.981Z,97831.00
2023-04-16T23:54:23.400Z,97823.00
2023-04-16T23:56:51.590Z,97836.00
2023-04-16T23:59:19.732Z,97820.00
